メインページ
METAR-TAF:

METAR-TAF

空港 :

ドバイ, アラブ首長国連邦

ドバイ国際空港

緯度: 25-15-10N, 経度: 055-21-52E, 海抜: 8m

現時点の気象観測

当レポートは1時間5分前の04:00(UTC)に作成
南/南東の風 4kt、からの間で変化する
気温 28°C
湿度 62%
気圧 1011 hPa
視程10km以上
1,500メートル以下は雲なし、積乱雲なし

METAR: OMDB 210400Z 16004KT 100V190 CAVOK 28/20 Q1011 NOSIG

時間: 09:05 (05:05 UTC)

予報

当レポートは6時間11分前の22:54(UTC)に作成
予報は21日の 00時(UTC)から 22日の 06時(UTC)まで有効
の風 5kt
視程: 8000m
21日の 07時(UTC)から 21日の 09時(UTC)まで徐々に
北西の風 12kt
21日の 16時(UTC)から 21日の 18時(UTC)まで徐々に
南/南東の風 5kt

TAF: OMDB 202254Z 2100/2206 17005KT 8000 NSC BECMG 2107/2109 32012KT BECMG 2116/2118 15005KT

4,000以上の空港の気象観測と天気予報(METAR報とTAF報)

利用可能な観測所は地図上に黄色い丸と赤い丸で示す。

丸の上にカーソルを重ねると観測所名を参照できる。

次にクリックすると気象観測と天気予報を参照できる。

マップの切り替え:黒色「×」印の緑ボタンをクリックして拡大、「-」印の緑ボタンをクリックして縮小、緑色の三角印をクリックして隣りの地図に切り替え


METAR-TAF: